Time;durP1;ratioP1;P1;durP2;ratioP2;P2;SDS_P1;SDS_P2;PMS_P1;PMS_P2;Temp;Humidity;BMP_temperature;BMP_pressure;BME280_temperature;BME280_humidity;BME280_pressure;Samples;Min_cycle;Max_cycle;Signal;HPM_P1;HPM_P2
2021/03/08 00:00:34;;;;;;;;;;;20.00;35.30;;;;;;500364;237;960;-72
2021/03/08 00:02:35;;;;;;;;;;;20.00;35.30;;;;;;500384;237;1090;-73
2021/03/08 00:04:36;;;;;;;;;;;20.00;35.40;;;;;;500401;237;1009;-72
2021/03/08 00:06:38;;;;;;;;;;;19.90;35.40;;;;;;500374;237;1095;-72
2021/03/08 00:08:39;;;;;;;;;;;20.00;35.40;;;;;;500414;237;1034;-73
2021/03/08 00:10:40;;;;;;;;;;;20.00;35.40;;;;;;500440;237;1019;-73
2021/03/08 00:12:41;;;;;;;;;;;20.00;35.30;;;;;;500472;237;1062;-73
2021/03/08 00:14:43;;;;;;;;;;;20.00;35.30;;;;;;500317;237;2179;-73
2021/03/08 00:16:44;;;;;;;;;;;19.90;35.30;;;;;;500323;237;1245;-73
2021/03/08 00:18:45;;;;;;;;;;;20.00;35.40;;;;;;500423;237;959;-72
2021/03/08 00:20:47;;;;;;;;;;;19.90;35.30;;;;;;500370;237;1209;-72
2021/03/08 00:22:48;;;;;;;;;;;19.90;35.40;;;;;;500335;237;1059;-72
2021/03/08 00:24:49;;;;;;;;;;;19.90;35.30;;;;;;500326;237;987;-72
2021/03/08 00:26:50;;;;;;;;;;;20.00;35.10;;;;;;500291;237;1320;-72
2021/03/08 00:28:52;;;;;;;;;;;19.90;35.40;;;;;;500373;237;949;-72
2021/03/08 00:30:53;;;;;;;;;;;20.00;35.40;;;;;;500304;237;1069;-73
2021/03/08 00:32:54;;;;;;;;;;;20.00;35.40;;;;;;500469;237;2191;-73
2021/03/08 00:34:56;;;;;;;;;;;20.00;35.40;;;;;;500368;237;943;-73
2021/03/08 00:36:57;;;;;;;;;;;20.10;35.40;;;;;;500397;237;1076;-73
2021/03/08 00:38:58;;;;;;;;;;;20.10;35.50;;;;;;500405;237;1051;-73
2021/03/08 00:40:59;;;;;;;;;;;20.10;35.40;;;;;;500508;237;1343;-72
2021/03/08 00:43:01;;;;;;;;;;;20.20;35.30;;;;;;500390;237;1147;-73
2021/03/08 00:45:02;;;;;;;;;;;20.10;35.30;;;;;;500351;237;935;-73
2021/03/08 00:47:03;;;;;;;;;;;20.00;35.50;;;;;;500356;237;967;-73
2021/03/08 00:49:04;;;;;;;;;;;20.00;35.50;;;;;;500343;237;982;-72
2021/03/08 00:51:06;;;;;;;;;;;20.00;35.50;;;;;;500371;237;937;-72
2021/03/08 00:53:07;;;;;;;;;;;20.00;35.40;;;;;;500362;237;2183;-72
2021/03/08 00:55:08;;;;;;;;;;;20.10;35.20;;;;;;500342;237;988;-72
2021/03/08 00:57:10;;;;;;;;;;;20.10;35.20;;;;;;500341;237;1171;-73
2021/03/08 00:59:11;;;;;;;;;;;20.10;35.30;;;;;;500434;237;1095;-73
2021/03/08 01:01:12;;;;;;;;;;;20.10;35.30;;;;;;500387;237;1223;-72
2021/03/08 01:03:13;;;;;;;;;;;20.10;35.20;;;;;;500362;237;988;-72
2021/03/08 01:05:15;;;;;;;;;;;20.10;35.20;;;;;;500422;237;1060;-72
2021/03/08 01:07:16;;;;;;;;;;;19.90;35.30;;;;;;500344;237;1073;-72
2021/03/08 01:09:18;;;;;;;;;;;19.90;35.60;;;;;;500403;237;983;-72
2021/03/08 01:11:19;;;;;;;;;;;19.90;35.60;;;;;;500467;237;1195;-72
2021/03/08 01:13:20;;;;;;;;;;;19.90;35.50;;;;;;500372;237;2191;-72
2021/03/08 01:15:21;;;;;;;;;;;19.90;35.50;;;;;;500468;237;968;-73
2021/03/08 01:17:23;;;;;;;;;;;19.80;35.60;;;;;;500368;237;1093;-73
2021/03/08 01:19:24;;;;;;;;;;;19.90;35.70;;;;;;500445;237;958;-72
2021/03/08 01:21:25;;;;;;;;;;;19.80;35.70;;;;;;500363;237;1209;-73
2021/03/08 01:23:27;;;;;;;;;;;19.80;35.70;;;;;;500432;237;933;-73
2021/03/08 01:25:28;;;;;;;;;;;19.80;35.80;;;;;;500404;237;1055;-72
2021/03/08 01:27:29;;;;;;;;;;;19.70;35.80;;;;;;500413;234;1334;-72
2021/03/08 01:29:30;;;;;;;;;;;19.80;35.80;;;;;;500470;237;1118;-72
2021/03/08 01:31:32;;;;;;;;;;;19.80;35.70;;;;;;500401;237;1163;-72
2021/03/08 01:33:33;;;;;;;;;;;19.90;35.70;;;;;;500419;237;2136;-73
2021/03/08 01:35:34;;;;;;;;;;;19.80;35.60;;;;;;500381;237;1046;-72
2021/03/08 01:37:36;;;;;;;;;;;19.90;35.70;;;;;;500280;237;1137;-72
2021/03/08 01:39:37;;;;;;;;;;;19.80;35.70;;;;;;500395;237;957;-72
2021/03/08 01:41:38;;;;;;;;;;;19.80;35.70;;;;;;500289;237;1266;-72
2021/03/08 01:43:40;;;;;;;;;;;19.90;35.80;;;;;;500333;237;1198;-72
2021/03/08 01:45:41;;;;;;;;;;;19.80;35.70;;;;;;500364;237;1183;-73
2021/03/08 01:47:42;;;;;;;;;;;19.80;35.80;;;;;;500294;237;1115;-73
2021/03/08 01:49:43;;;;;;;;;;;19.80;35.80;;;;;;500453;237;1029;-72
2021/03/08 01:51:45;;;;;;;;;;;19.90;35.50;;;;;;500422;237;1221;-73
2021/03/08 01:53:46;;;;;;;;;;;19.90;35.60;;;;;;500439;237;2196;-72
2021/03/08 01:55:47;;;;;;;;;;;19.80;35.80;;;;;;500382;237;1034;-72
2021/03/08 01:57:48;;;;;;;;;;;19.80;35.80;;;;;;500390;237;1114;-72
2021/03/08 01:59:50;;;;;;;;;;;19.80;35.80;;;;;;500382;237;1096;-72
2021/03/08 02:01:51;;;;;;;;;;;19.80;36.00;;;;;;500325;237;1297;-73
2021/03/08 02:03:52;;;;;;;;;;;19.80;36.10;;;;;;500366;237;1101;-73
2021/03/08 02:05:54;;;;;;;;;;;19.80;35.90;;;;;;500431;237;1331;-73
2021/03/08 02:07:55;;;;;;;;;;;19.80;35.80;;;;;;500408;236;1231;-72
2021/03/08 02:09:56;;;;;;;;;;;19.80;35.80;;;;;;500431;237;1059;-72
2021/03/08 02:11:57;;;;;;;;;;;19.80;35.80;;;;;;500391;237;1130;-72
2021/03/08 02:13:59;;;;;;;;;;;19.80;35.80;;;;;;500427;237;2148;-72
2021/03/08 02:16:00;;;;;;;;;;;19.80;35.80;;;;;;500370;237;1129;-73
2021/03/08 02:18:01;;;;;;;;;;;19.70;35.80;;;;;;500442;237;923;-72
2021/03/08 02:20:03;;;;;;;;;;;19.70;35.90;;;;;;500387;237;1193;-73
2021/03/08 02:22:04;;;;;;;;;;;19.70;35.90;;;;;;500386;237;1157;-73
2021/03/08 02:24:05;;;;;;;;;;;19.70;35.90;;;;;;500457;237;910;-72
2021/03/08 02:26:06;;;;;;;;;;;19.70;35.90;;;;;;500399;237;1212;-73
2021/03/08 02:28:08;;;;;;;;;;;19.70;35.90;;;;;;500418;237;1063;-72
2021/03/08 02:30:09;;;;;;;;;;;19.70;35.90;;;;;;500440;237;1110;-73
2021/03/08 02:32:10;;;;;;;;;;;19.70;35.80;;;;;;500289;237;1185;-73
2021/03/08 02:34:12;;;;;;;;;;;19.80;35.80;;;;;;500566;237;2192;-72
2021/03/08 02:36:13;;;;;;;;;;;19.70;35.80;;;;;;500309;237;1214;-72
2021/03/08 02:38:14;;;;;;;;;;;19.70;35.80;;;;;;500521;237;1103;-73
2021/03/08 02:40:15;;;;;;;;;;;19.70;35.80;;;;;;500487;237;1045;-73
2021/03/08 02:42:17;;;;;;;;;;;19.70;35.80;;;;;;500395;237;1099;-72
2021/03/08 02:44:19;;;;;;;;;;;19.70;35.80;;;;;;500389;237;1140;-72
2021/03/08 02:46:20;;;;;;;;;;;19.70;35.80;;;;;;500263;237;1170;-73
2021/03/08 02:48:21;;;;;;;;;;;19.70;35.80;;;;;;500445;237;1117;-73
2021/03/08 02:50:22;;;;;;;;;;;19.60;35.80;;;;;;500397;237;1030;-73
2021/03/08 02:52:24;;;;;;;;;;;19.60;35.80;;;;;;500366;237;1081;-73
2021/03/08 02:54:26;;;;;;;;;;;19.60;35.80;;;;;;500369;237;2191;-73
2021/03/08 02:56:27;;;;;;;;;;;19.60;35.80;;;;;;500355;237;1274;-73
2021/03/08 02:58:29;;;;;;;;;;;19.60;35.80;;;;;;500404;237;1057;-72
2021/03/08 03:00:30;;;;;;;;;;;19.60;35.90;;;;;;500400;237;1126;-73
2021/03/08 03:02:31;;;;;;;;;;;19.60;36.00;;;;;;500417;237;1017;-73
2021/03/08 03:04:33;;;;;;;;;;;19.60;35.90;;;;;;500431;237;968;-73
2021/03/08 03:06:34;;;;;;;;;;;19.60;35.90;;;;;;500422;237;1164;-72
2021/03/08 03:08:35;;;;;;;;;;;19.50;35.70;;;;;;500397;237;970;-73
2021/03/08 03:10:37;;;;;;;;;;;19.50;35.70;;;;;;500364;237;966;-73
2021/03/08 03:12:38;;;;;;;;;;;19.50;35.90;;;;;;500354;237;1114;-73
2021/03/08 03:14:39;;;;;;;;;;;19.50;36.00;;;;;;500408;237;2184;-73
2021/03/08 03:16:40;;;;;;;;;;;19.50;36.10;;;;;;500422;237;1098;-73
2021/03/08 03:18:42;;;;;;;;;;;19.50;36.10;;;;;;500373;237;1266;-72
2021/03/08 03:20:43;;;;;;;;;;;19.50;36.20;;;;;;500462;237;1202;-73
2021/03/08 03:22:44;;;;;;;;;;;19.50;36.10;;;;;;500344;237;1106;-72
2021/03/08 03:24:46;;;;;;;;;;;19.50;36.10;;;;;;500426;237;972;-73
2021/03/08 03:26:47;;;;;;;;;;;19.50;36.20;;;;;;500361;237;1161;-73
2021/03/08 03:28:49;;;;;;;;;;;19.50;36.20;;;;;;500345;238;1203;-73
2021/03/08 03:30:50;;;;;;;;;;;19.40;36.20;;;;;;500389;237;1208;-73
2021/03/08 03:32:51;;;;;;;;;;;19.50;36.20;;;;;;500384;237;1046;-73
2021/03/08 03:34:52;;;;;;;;;;;19.40;36.10;;;;;;500437;237;2183;-73
2021/03/08 03:36:54;;;;;;;;;;;19.40;36.20;;;;;;500429;237;1106;-73
2021/03/08 03:38:55;;;;;;;;;;;19.40;36.20;;;;;;500420;237;971;-72
2021/03/08 03:40:57;;;;;;;;;;;19.40;36.20;;;;;;500370;237;965;-72
2021/03/08 03:42:57;;;;;;;;;;;19.30;36.30;;;;;;500389;237;1233;-73
2021/03/08 03:44:59;;;;;;;;;;;19.30;36.40;;;;;;500404;237;1221;-73
2021/03/08 03:47:00;;;;;;;;;;;19.30;36.50;;;;;;500359;237;1028;-73
2021/03/08 03:49:01;;;;;;;;;;;19.30;36.50;;;;;;500369;237;953;-72
2021/03/08 03:51:03;;;;;;;;;;;19.40;36.40;;;;;;500402;237;1027;-72
2021/03/08 03:53:04;;;;;;;;;;;19.40;36.30;;;;;;500403;237;1029;-72
2021/03/08 03:55:05;;;;;;;;;;;19.40;36.20;;;;;;500468;237;2128;-73
2021/03/08 03:57:06;;;;;;;;;;;19.50;36.10;;;;;;500309;237;956;-73
2021/03/08 03:59:08;;;;;;;;;;;19.50;36.20;;;;;;500448;237;970;-73
2021/03/08 04:01:09;;;;;;;;;;;19.50;36.20;;;;;;500475;237;1218;-73
2021/03/08 04:03:10;;;;;;;;;;;19.50;36.10;;;;;;500507;237;1117;-73
2021/03/08 04:05:12;;;;;;;;;;;19.60;36.00;;;;;;500454;237;974;-73
2021/03/08 04:07:15;;;;;;;;;;;19.60;35.90;;;;;;500406;237;1165;-72
2021/03/08 04:09:16;;;;;;;;;;;19.60;35.90;;;;;;500419;237;951;-73
2021/03/08 04:11:17;;;;;;;;;;;19.60;35.90;;;;;;500383;237;1191;-73
2021/03/08 04:13:18;;;;;;;;;;;19.60;36.00;;;;;;500455;237;1042;-73
2021/03/08 04:15:20;;;;;;;;;;;19.50;36.10;;;;;;500346;237;2132;-73
2021/03/08 04:17:21;;;;;;;;;;;19.50;35.90;;;;;;500194;237;1091;-73
2021/03/08 04:19:22;;;;;;;;;;;19.50;36.00;;;;;;500346;237;1053;-72
2021/03/08 04:21:24;;;;;;;;;;;19.60;36.00;;;;;;500335;237;1187;-72
2021/03/08 04:23:25;;;;;;;;;;;19.60;36.10;;;;;;500375;237;952;-73
2021/03/08 04:25:26;;;;;;;;;;;19.50;36.20;;;;;;500406;237;1221;-72
2021/03/08 04:27:27;;;;;;;;;;;19.50;36.30;;;;;;500427;237;1225;-72
2021/03/08 04:29:29;;;;;;;;;;;19.50;36.20;;;;;;500422;237;1059;-73
2021/03/08 04:31:30;;;;;;;;;;;19.50;36.10;;;;;;500349;237;1280;-72
2021/03/08 04:33:31;;;;;;;;;;;19.50;36.20;;;;;;500402;237;1076;-72
2021/03/08 04:35:33;;;;;;;;;;;19.50;36.10;;;;;;500482;237;2187;-72
2021/03/08 04:37:34;;;;;;;;;;;19.50;36.10;;;;;;500498;237;1079;-73
2021/03/08 04:39:35;;;;;;;;;;;19.50;36.10;;;;;;500411;237;952;-72
2021/03/08 04:41:36;;;;;;;;;;;19.50;36.20;;;;;;500346;237;1220;-72
2021/03/08 04:43:38;;;;;;;;;;;19.50;36.20;;;;;;500430;237;936;-72
2021/03/08 04:45:40;;;;;;;;;;;19.50;36.20;;;;;;500434;237;1152;-73
2021/03/08 04:47:40;;;;;;;;;;;19.40;36.20;;;;;;500438;237;1241;-73
2021/03/08 04:49:42;;;;;;;;;;;19.40;36.20;;;;;;500412;237;993;-72
2021/03/08 04:51:43;;;;;;;;;;;19.50;36.20;;;;;;500386;237;1201;-72
2021/03/08 04:53:44;;;;;;;;;;;19.50;36.20;;;;;;500397;237;999;-72
2021/03/08 04:55:45;;;;;;;;;;;19.50;36.10;;;;;;500377;237;2200;-72
2021/03/08 04:57:47;;;;;;;;;;;19.40;36.20;;;;;;500332;237;1083;-72
2021/03/08 04:59:48;;;;;;;;;;;19.40;36.20;;;;;;500363;237;996;-72
2021/03/08 05:01:49;;;;;;;;;;;19.50;36.20;;;;;;500335;237;1283;-73
2021/03/08 05:03:51;;;;;;;;;;;19.50;36.20;;;;;;500362;237;1055;-73
2021/03/08 05:05:52;;;;;;;;;;;19.40;36.30;;;;;;500432;237;969;-73
2021/03/08 05:07:53;;;;;;;;;;;19.40;36.40;;;;;;500517;237;1052;-72
2021/03/08 05:09:55;;;;;;;;;;;19.30;36.40;;;;;;500426;237;959;-73
2021/03/08 05:11:56;;;;;;;;;;;19.40;36.40;;;;;;500330;237;1198;-73
2021/03/08 05:13:57;;;;;;;;;;;19.40;36.30;;;;;;500325;237;955;-73
2021/03/08 05:15:58;;;;;;;;;;;19.50;36.30;;;;;;500217;237;2187;-73
2021/03/08 05:18:00;;;;;;;;;;;19.40;35.90;;;;;;500335;237;1065;-73
2021/03/08 05:20:01;;;;;;;;;;;19.50;36.10;;;;;;500377;237;1240;-73
2021/03/08 05:22:02;;;;;;;;;;;19.50;36.20;;;;;;500440;237;1159;-73
2021/03/08 05:24:04;;;;;;;;;;;19.50;36.20;;;;;;500392;237;1016;-73
2021/03/08 05:26:05;;;;;;;;;;;19.40;36.30;;;;;;500299;237;1175;-73
2021/03/08 05:28:06;;;;;;;;;;;19.40;36.30;;;;;;500399;237;918;-73
2021/03/08 05:30:07;;;;;;;;;;;19.40;36.30;;;;;;500357;237;1064;-73
2021/03/08 05:32:09;;;;;;;;;;;19.40;36.20;;;;;;500282;237;1193;-73
2021/03/08 05:34:10;;;;;;;;;;;19.40;36.30;;;;;;500255;237;936;-72
2021/03/08 05:36:11;;;;;;;;;;;19.30;36.40;;;;;;500256;237;2175;-72
2021/03/08 05:38:13;;;;;;;;;;;19.30;36.40;;;;;;500269;237;1050;-72
2021/03/08 05:40:14;;;;;;;;;;;19.30;36.40;;;;;;500302;237;1039;-72
2021/03/08 05:42:15;;;;;;;;;;;19.30;36.40;;;;;;500246;237;958;-72
2021/03/08 05:44:17;;;;;;;;;;;19.30;36.40;;;;;;500258;237;1034;-72
2021/03/08 05:46:18;;;;;;;;;;;19.20;36.30;;;;;;500138;237;1137;-73
2021/03/08 05:48:19;;;;;;;;;;;19.30;36.40;;;;;;500201;237;1120;-73
2021/03/08 05:50:20;;;;;;;;;;;19.30;36.30;;;;;;500077;237;1022;-73
2021/03/08 05:52:22;;;;;;;;;;;19.30;36.20;;;;;;500176;237;1130;-73
2021/03/08 05:54:23;;;;;;;;;;;19.30;36.10;;;;;;500213;237;964;-73
2021/03/08 05:56:24;;;;;;;;;;;19.30;36.00;;;;;;500069;237;2194;-73
2021/03/08 05:58:26;;;;;;;;;;;19.20;36.00;;;;;;500166;237;987;-73
2021/03/08 06:00:27;;;;;;;;;;;19.30;35.70;;;;;;500118;237;1112;-73
2021/03/08 06:02:28;;;;;;;;;;;19.20;35.70;;;;;;500082;237;1152;-73
2021/03/08 06:04:29;;;;;;;;;;;19.30;35.70;;;;;;500113;237;1012;-73
2021/03/08 06:06:31;;;;;;;;;;;19.10;35.60;;;;;;500071;237;1181;-72
2021/03/08 06:08:32;;;;;;;;;;;19.10;35.70;;;;;;500096;237;970;-72
2021/03/08 06:10:33;;;;;;;;;;;19.10;35.60;;;;;;500188;237;1052;-72
2021/03/08 06:12:34;;;;;;;;;;;19.00;35.40;;;;;;500265;237;1139;-72
2021/03/08 06:14:36;;;;;;;;;;;19.10;35.40;;;;;;500220;237;1033;-72
2021/03/08 06:16:37;;;;;;;;;;;19.00;35.60;;;;;;500050;237;2176;-72
2021/03/08 06:18:38;;;;;;;;;;;19.00;35.70;;;;;;500044;237;1022;-72
2021/03/08 06:20:40;;;;;;;;;;;19.00;35.40;;;;;;499975;237;1072;-72
2021/03/08 06:22:41;;;;;;;;;;;19.10;35.50;;;;;;500024;237;1138;-72
2021/03/08 06:24:42;;;;;;;;;;;19.00;35.40;;;;;;500064;237;1023;-72
2021/03/08 06:26:43;;;;;;;;;;;19.00;35.40;;;;;;499923;237;1069;-72
2021/03/08 06:28:45;;;;;;;;;;;19.00;35.40;;;;;;499923;237;1184;-72
2021/03/08 06:30:46;;;;;;;;;;;19.00;35.40;;;;;;499994;237;1031;-72
2021/03/08 06:32:47;;;;;;;;;;;18.90;35.40;;;;;;499907;237;1365;-72
2021/03/08 06:34:48;;;;;;;;;;;18.90;35.30;;;;;;500039;237;953;-74
2021/03/08 06:36:50;;;;;;;;;;;18.90;35.40;;;;;;499928;237;2183;-73
2021/03/08 06:38:51;;;;;;;;;;;18.90;35.40;;;;;;500071;237;1054;-73
2021/03/08 06:40:52;;;;;;;;;;;19.00;35.20;;;;;;500008;237;1208;-72
2021/03/08 06:42:54;;;;;;;;;;;19.00;35.00;;;;;;499879;237;1070;-73
2021/03/08 06:44:55;;;;;;;;;;;18.90;35.20;;;;;;500015;238;1381;-73
2021/03/08 06:46:56;;;;;;;;;;;19.00;35.40;;;;;;500066;237;1229;-72
2021/03/08 06:48:57;;;;;;;;;;;19.00;35.40;;;;;;500028;237;1045;-72
2021/03/08 06:50:59;;;;;;;;;;;19.00;35.40;;;;;;499858;237;1482;-72
2021/03/08 06:53:00;;;;;;;;;;;19.00;35.30;;;;;;499901;237;1206;-73
2021/03/08 06:55:02;;;;;;;;;;;19.00;35.30;;;;;;499952;237;2124;-73
2021/03/08 06:57:03;;;;;;;;;;;19.00;35.40;;;;;;499928;237;1217;-73
2021/03/08 06:59:04;;;;;;;;;;;19.00;35.40;;;;;;499900;237;976;-73
2021/03/08 07:01:05;;;;;;;;;;;19.00;35.40;;;;;;499878;237;1483;-73
2021/03/08 07:03:07;;;;;;;;;;;18.90;35.50;;;;;;499797;237;1203;-73
2021/03/08 07:05:08;;;;;;;;;;;19.00;35.40;;;;;;499803;237;1050;-73
2021/03/08 07:07:11;;;;;;;;;;;18.90;35.40;;;;;;499740;237;1133;-73
2021/03/08 07:09:10;;;;;;;;;;;19.00;35.50;;;;;;499532;237;1418;-73
2021/03/08 07:11:12;;;;;;;;;;;18.90;35.40;;;;;;499807;237;1152;-73
2021/03/08 07:13:13;;;;;;;;;;;19.00;35.50;;;;;;499841;237;1147;-73
2021/03/08 07:15:14;;;;;;;;;;;19.00;35.60;;;;;;499752;237;2124;-73
2021/03/08 07:17:16;;;;;;;;;;;18.90;35.70;;;;;;499631;237;1195;-73
2021/03/08 07:19:17;;;;;;;;;;;18.90;35.80;;;;;;499726;237;1110;-73
2021/03/08 07:21:18;;;;;;;;;;;19.00;35.70;;;;;;499735;237;1134;-73
2021/03/08 07:23:19;;;;;;;;;;;18.90;35.70;;;;;;499737;237;1069;-73
2021/03/08 07:25:21;;;;;;;;;;;18.90;35.80;;;;;;499720;237;1283;-73
2021/03/08 07:27:22;;;;;;;;;;;18.90;35.80;;;;;;499673;237;1042;-73
2021/03/08 07:29:23;;;;;;;;;;;19.00;35.80;;;;;;499701;237;1061;-73
2021/03/08 07:31:25;;;;;;;;;;;18.90;35.80;;;;;;499827;237;1551;-73
2021/03/08 07:33:26;;;;;;;;;;;19.00;35.80;;;;;;499760;237;1148;-72
2021/03/08 07:35:27;;;;;;;;;;;19.00;35.80;;;;;;499711;237;2232;-72
2021/03/08 07:37:29;;;;;;;;;;;19.00;35.40;;;;;;499621;237;1141;-72
2021/03/08 07:39:30;;;;;;;;;;;19.00;35.90;;;;;;499670;237;1035;-73
2021/03/08 07:41:31;;;;;;;;;;;19.00;36.00;;;;;;499565;237;1223;-73
2021/03/08 07:43:32;;;;;;;;;;;18.90;36.10;;;;;;499793;237;1084;-73
2021/03/08 07:45:34;;;;;;;;;;;18.90;36.00;;;;;;499464;237;1058;-73
2021/03/08 07:47:35;;;;;;;;;;;19.00;36.10;;;;;;499628;237;1111;-73
2021/03/08 07:49:36;;;;;;;;;;;19.00;36.10;;;;;;499516;237;1014;-73
2021/03/08 07:51:38;;;;;;;;;;;18.90;36.10;;;;;;499564;237;1080;-73
2021/03/08 07:53:39;;;;;;;;;;;18.90;36.10;;;;;;499511;237;1038;-73
2021/03/08 07:55:40;;;;;;;;;;;19.00;36.10;;;;;;499465;237;2180;-72
2021/03/08 07:57:41;;;;;;;;;;;19.00;36.10;;;;;;499268;237;1211;-72
2021/03/08 07:59:43;;;;;;;;;;;19.10;36.10;;;;;;499518;237;1013;-73
2021/03/08 08:01:44;;;;;;;;;;;19.10;35.80;;;;;;499752;237;1097;-72
2021/03/08 08:03:45;;;;;;;;;;;19.20;35.80;;;;;;499474;237;1446;-73
2021/03/08 08:05:47;;;;;;;;;;;19.20;35.70;;;;;;499463;237;1032;-72
2021/03/08 08:07:48;;;;;;;;;;;19.10;35.90;;;;;;499617;237;1078;-72
2021/03/08 08:09:49;;;;;;;;;;;19.10;36.00;;;;;;499545;237;1417;-72
2021/03/08 08:11:51;;;;;;;;;;;19.10;36.00;;;;;;499550;237;1313;-72
2021/03/08 08:13:52;;;;;;;;;;;19.30;35.70;;;;;;499517;237;1134;-72
2021/03/08 08:15:53;;;;;;;;;;;19.30;35.60;;;;;;499659;237;2191;-72
2021/03/08 08:17:54;;;;;;;;;;;19.30;35.60;;;;;;499716;237;1175;-72
2021/03/08 08:19:56;;;;;;;;;;;19.30;35.60;;;;;;499438;237;1027;-72
2021/03/08 08:21:57;;;;;;;;;;;19.30;35.50;;;;;;499320;237;1205;-73
2021/03/08 08:23:59;;;;;;;;;;;19.30;35.60;;;;;;499438;237;1080;-73
2021/03/08 08:26:00;;;;;;;;;;;19.40;35.50;;;;;;499546;237;1027;-72
2021/03/08 08:28:01;;;;;;;;;;;19.40;35.10;;;;;;499643;237;1146;-72
2021/03/08 08:30:02;;;;;;;;;;;19.40;35.40;;;;;;499560;237;1098;-73
2021/03/08 08:32:04;;;;;;;;;;;19.50;35.50;;;;;;499409;237;1094;-72
2021/03/08 08:34:05;;;;;;;;;;;19.50;35.50;;;;;;499481;237;1198;-73
2021/03/08 08:36:06;;;;;;;;;;;19.50;35.40;;;;;;499496;237;2179;-72
2021/03/08 08:38:08;;;;;;;;;;;19.50;35.40;;;;;;499458;237;1052;-72
2021/03/08 08:40:09;;;;;;;;;;;19.50;35.50;;;;;;499555;237;1039;-72
2021/03/08 08:42:10;;;;;;;;;;;19.50;35.60;;;;;;499492;237;1089;-72
2021/03/08 08:44:12;;;;;;;;;;;19.50;35.50;;;;;;499589;237;1026;-72
2021/03/08 08:46:13;;;;;;;;;;;19.50;35.50;;;;;;499540;237;1066;-72
2021/03/08 08:48:14;;;;;;;;;;;19.60;35.60;;;;;;499691;237;1049;-72
2021/03/08 08:50:16;;;;;;;;;;;19.50;35.50;;;;;;499545;237;1042;-72
2021/03/08 08:52:17;;;;;;;;;;;19.60;35.50;;;;;;499550;237;1053;-72
2021/03/08 08:54:18;;;;;;;;;;;19.60;35.60;;;;;;499474;237;1199;-73
2021/03/08 08:56:19;;;;;;;;;;;19.60;35.60;;;;;;499291;237;2125;-72
2021/03/08 08:58:21;;;;;;;;;;;19.60;35.60;;;;;;499295;237;1103;-72
2021/03/08 09:00:22;;;;;;;;;;;19.70;35.60;;;;;;499359;237;1071;-72
2021/03/08 09:02:26;;;;;;;;;;;19.70;35.50;;;;;;499464;237;1074;-72
2021/03/08 09:04:25;;;;;;;;;;;19.70;35.50;;;;;;499452;237;1396;-72
2021/03/08 09:06:26;;;;;;;;;;;19.80;35.50;;;;;;499344;237;1122;-72
2021/03/08 09:08:30;;;;;;;;;;;19.80;35.40;;;;;;499464;237;1030;-73
2021/03/08 09:10:30;;;;;;;;;;;19.90;35.30;;;;;;499409;237;1333;-73
2021/03/08 09:12:31;;;;;;;;;;;19.80;35.40;;;;;;498916;237;1092;-73
2021/03/08 09:14:34;;;;;;;;;;;19.90;35.20;;;;;;499316;237;1277;-73
2021/03/08 09:16:36;;;;;;;;;;;19.90;35.20;;;;;;499347;237;2179;-73
2021/03/08 09:18:36;;;;;;;;;;;19.90;35.10;;;;;;498940;237;1067;-73
2021/03/08 09:20:39;;;;;;;;;;;19.90;34.90;;;;;;499244;237;1049;-73
2021/03/08 09:22:44;;;;;;;;;;;19.80;35.40;;;;;;499333;237;2416;-72
2021/03/08 09:24:42;;;;;;;;;;;19.80;35.50;;;;;;499405;237;1513;-73
2021/03/08 09:26:43;;;;;;;;;;;19.90;35.50;;;;;;499405;237;1160;-72
2021/03/08 09:28:44;;;;;;;;;;;20.00;35.40;;;;;;499500;237;1093;-72
2021/03/08 09:30:45;;;;;;;;;;;20.00;35.30;;;;;;499616;237;1107;-72
2021/03/08 09:32:47;;;;;;;;;;;20.00;35.30;;;;;;499365;237;1144;-72
2021/03/08 09:34:48;;;;;;;;;;;20.00;35.30;;;;;;499497;237;1145;-72
2021/03/08 09:36:50;;;;;;;;;;;20.10;35.30;;;;;;499350;237;2175;-72
2021/03/08 09:38:51;;;;;;;;;;;20.10;35.30;;;;;;499462;237;1044;-72
2021/03/08 09:40:52;;;;;;;;;;;20.10;35.30;;;;;;499372;237;1145;-72
2021/03/08 09:42:53;;;;;;;;;;;20.10;35.20;;;;;;499385;237;1268;-72
2021/03/08 09:44:55;;;;;;;;;;;20.10;35.30;;;;;;499429;237;1093;-72
2021/03/08 09:46:56;;;;;;;;;;;20.10;35.30;;;;;;499462;237;1059;-72
2021/03/08 09:49:03;;;;;;;;;;;20.10;35.20;;;;;;499538;237;1249;-72
2021/03/08 09:50:58;;;;;;;;;;;20.10;35.20;;;;;;499382;237;1396;-73
2021/03/08 09:53:00;;;;;;;;;;;20.20;35.20;;;;;;499450;237;1043;-73
2021/03/08 09:55:01;;;;;;;;;;;20.30;35.10;;;;;;499486;237;1010;-73
2021/03/08 09:57:03;;;;;;;;;;;20.30;35.10;;;;;;499432;237;2232;-73
2021/03/08 09:59:04;;;;;;;;;;;20.20;35.00;;;;;;499560;237;1066;-72
2021/03/08 10:01:05;;;;;;;;;;;20.20;35.20;;;;;;499276;237;1042;-72
2021/03/08 10:03:06;;;;;;;;;;;20.20;35.10;;;;;;499346;237;1074;-72
2021/03/08 10:05:08;;;;;;;;;;;20.20;35.00;;;;;;499663;237;1089;-72
2021/03/08 10:07:09;;;;;;;;;;;20.20;35.00;;;;;;499686;237;1073;-72
2021/03/08 10:09:11;;;;;;;;;;;20.30;35.00;;;;;;499601;237;1081;-72
2021/03/08 10:11:12;;;;;;;;;;;20.20;34.90;;;;;;499224;237;1238;-72
2021/03/08 10:13:13;;;;;;;;;;;20.30;34.90;;;;;;499399;237;1211;-72
2021/03/08 10:15:15;;;;;;;;;;;20.20;35.00;;;;;;499460;237;1048;-72
2021/03/08 10:17:17;;;;;;;;;;;20.20;34.60;;;;;;499729;237;2172;-72
2021/03/08 10:19:21;;;;;;;;;;;20.20;34.90;;;;;;499488;237;1152;-72
2021/03/08 10:21:19;;;;;;;;;;;20.20;34.90;;;;;;499319;237;1397;-73
2021/03/08 10:23:20;;;;;;;;;;;20.30;35.00;;;;;;499287;237;1006;-73
2021/03/08 10:25:21;;;;;;;;;;;20.30;35.00;;;;;;499464;237;1113;-72
2021/03/08 10:27:23;;;;;;;;;;;20.30;35.00;;;;;;499573;237;1102;-72
2021/03/08 10:29:24;;;;;;;;;;;20.30;34.90;;;;;;499526;237;1061;-72
2021/03/08 10:31:25;;;;;;;;;;;20.30;35.00;;;;;;499465;237;1415;-72
2021/03/08 10:33:27;;;;;;;;;;;20.30;34.90;;;;;;499515;237;1110;-73
2021/03/08 10:35:28;;;;;;;;;;;20.40;35.00;;;;;;499488;237;1184;-73
2021/03/08 10:37:29;;;;;;;;;;;20.30;35.00;;;;;;499516;237;2183;-73
2021/03/08 10:39:31;;;;;;;;;;;20.40;34.90;;;;;;499403;237;1197;-72
2021/03/08 10:41:32;;;;;;;;;;;20.40;34.90;;;;;;499506;237;1079;-72
2021/03/08 10:43:33;;;;;;;;;;;20.50;34.80;;;;;;499558;237;1237;-73
2021/03/08 10:45:35;;;;;;;;;;;20.50;34.60;;;;;;499560;237;1151;-73
2021/03/08 10:47:36;;;;;;;;;;;20.60;34.70;;;;;;499877;237;1086;-73
2021/03/08 10:49:37;;;;;;;;;;;20.40;34.90;;;;;;499584;237;1153;-73
2021/03/08 10:51:39;;;;;;;;;;;20.50;34.80;;;;;;499700;237;1113;-73
2021/03/08 10:53:40;;;;;;;;;;;20.40;34.90;;;;;;499503;237;1064;-73
2021/03/08 10:55:41;;;;;;;;;;;20.50;34.80;;;;;;499327;237;1002;-73
2021/03/08 10:57:42;;;;;;;;;;;20.60;34.70;;;;;;499226;237;2175;-73
2021/03/08 10:59:44;;;;;;;;;;;20.60;34.20;;;;;;499385;237;1161;-73
2021/03/08 11:01:45;;;;;;;;;;;20.60;34.50;;;;;;499453;237;1103;-73
2021/03/08 11:03:46;;;;;;;;;;;20.70;34.60;;;;;;499328;237;1035;-73
2021/03/08 11:05:48;;;;;;;;;;;20.70;34.50;;;;;;499399;237;1132;-73
2021/03/08 11:07:49;;;;;;;;;;;20.70;34.60;;;;;;499360;237;1137;-73
2021/03/08 11:09:50;;;;;;;;;;;20.70;34.50;;;;;;499424;237;1008;-73
2021/03/08 11:11:52;;;;;;;;;;;20.80;34.60;;;;;;499574;237;1184;-73
2021/03/08 11:13:53;;;;;;;;;;;20.70;34.50;;;;;;499570;237;1021;-73
2021/03/08 11:15:54;;;;;;;;;;;20.80;34.50;;;;;;499418;237;1177;-72
2021/03/08 11:17:56;;;;;;;;;;;20.80;34.50;;;;;;499439;237;2120;-73
2021/03/08 11:19:57;;;;;;;;;;;20.90;34.40;;;;;;499417;237;1329;-73
2021/03/08 11:21:59;;;;;;;;;;;21.00;34.10;;;;;;499604;237;1070;-73
2021/03/08 11:24:00;;;;;;;;;;;21.00;34.00;;;;;;499404;237;1015;-73
2021/03/08 11:26:01;;;;;;;;;;;21.00;34.00;;;;;;499306;237;1071;-73
2021/03/08 11:28:02;;;;;;;;;;;21.00;34.00;;;;;;499463;237;1081;-72
2021/03/08 11:30:04;;;;;;;;;;;21.00;34.00;;;;;;499363;237;1093;-72
2021/03/08 11:32:05;;;;;;;;;;;21.00;34.00;;;;;;499528;237;1066;-73
2021/03/08 11:34:06;;;;;;;;;;;21.10;34.00;;;;;;499427;237;1053;-73
2021/03/08 11:36:08;;;;;;;;;;;21.10;33.90;;;;;;499371;237;1152;-73
2021/03/08 11:38:09;;;;;;;;;;;21.10;33.90;;;;;;499456;237;2140;-73
2021/03/08 11:40:10;;;;;;;;;;;21.10;33.90;;;;;;499417;237;1079;-73
2021/03/08 11:42:11;;;;;;;;;;;21.20;33.80;;;;;;499309;237;1075;-73
2021/03/08 11:44:13;;;;;;;;;;;21.30;33.60;;;;;;499403;237;989;-73
2021/03/08 11:46:14;;;;;;;;;;;21.40;33.60;;;;;;499329;237;1173;-73
2021/03/08 11:48:15;;;;;;;;;;;21.40;33.70;;;;;;499296;237;1079;-74
2021/03/08 11:50:16;;;;;;;;;;;21.50;33.60;;;;;;499372;237;1179;-73
2021/03/08 11:52:18;;;;;;;;;;;21.60;33.50;;;;;;499263;237;1098;-73
2021/03/08 11:54:19;;;;;;;;;;;21.60;33.50;;;;;;499181;237;1058;-74
2021/03/08 11:56:20;;;;;;;;;;;21.70;33.40;;;;;;499358;237;1022;-74